createdAt,value
2016-05-06T00:00:07.929Z,12.9
2016-05-06T00:00:17.929Z,12.8
2016-05-06T00:00:27.931Z,12.9
2016-05-06T00:00:37.916Z,12.9
2016-05-06T00:00:47.916Z,12.8
2016-05-06T00:00:57.916Z,12.9
2016-05-06T00:01:07.900Z,12.8
2016-05-06T00:01:17.900Z,12.9
2016-05-06T00:01:27.886Z,12.8
2016-05-06T00:01:37.886Z,12.8
2016-05-06T00:01:47.886Z,12.8
2016-05-06T00:01:57.871Z,12.8
2016-05-06T00:02:07.871Z,12.8
2016-05-06T00:02:17.871Z,12.8
2016-05-06T00:02:27.875Z,12.8
2016-05-06T00:02:37.875Z,12.8
2016-05-06T00:02:47.859Z,12.8
2016-05-06T00:02:57.859Z,12.8
2016-05-06T00:03:07.843Z,12.8
2016-05-06T00:03:17.843Z,12.8
2016-05-06T00:03:27.846Z,12.8
2016-05-06T00:03:37.831Z,12.7
2016-05-06T00:03:47.831Z,12.8
2016-05-06T00:03:57.846Z,12.7
2016-05-06T00:04:07.831Z,12.8
2016-05-06T00:04:17.815Z,12.7
2016-05-06T00:04:27.817Z,12.8
2016-05-06T00:04:37.802Z,12.8
2016-05-06T00:04:47.802Z,12.8
2016-05-06T00:04:57.802Z,12.8
2016-05-06T00:05:07.802Z,12.8
2016-05-06T00:05:17.802Z,12.8
2016-05-06T00:05:27.788Z,12.8
2016-05-06T00:05:37.772Z,12.7
2016-05-06T00:05:47.772Z,12.8
2016-05-06T00:05:57.772Z,12.8
2016-05-06T00:06:07.772Z,12.7
2016-05-06T00:06:17.757Z,12.7
2016-05-06T00:06:27.760Z,12.8
2016-05-06T00:06:37.760Z,12.8
2016-05-06T00:06:47.744Z,12.7
2016-05-06T00:06:57.744Z,12.7
2016-05-06T00:07:07.744Z,12.7
2016-05-06T00:07:17.744Z,12.8
2016-05-06T00:07:27.730Z,12.7
2016-05-06T00:07:37.730Z,12.7
2016-05-06T00:07:47.715Z,12.7
2016-05-06T00:07:57.715Z,12.8
2016-05-06T00:08:07.715Z,12.7
2016-05-06T00:08:17.699Z,12.7
2016-05-06T00:08:27.719Z,12.7
2016-05-06T00:08:37.703Z,12.7
2016-05-06T00:08:47.703Z,12.8
2016-05-06T00:08:57.688Z,12.7
2016-05-06T00:09:07.688Z,12.7
2016-05-06T00:09:17.688Z,12.8
2016-05-06T00:09:27.674Z,12.8
2016-05-06T00:09:37.674Z,12.8
2016-05-06T00:09:47.674Z,12.7
2016-05-06T00:09:57.658Z,12.7
2016-05-06T00:10:07.658Z,12.7
2016-05-06T00:10:17.877Z,12.7
2016-05-06T00:10:27.661Z,12.7
2016-05-06T00:10:37.708Z,12.7
2016-05-06T00:10:47.646Z,12.7
2016-05-06T00:10:57.646Z,12.7
2016-05-06T00:11:07.630Z,12.7
2016-05-06T00:11:17.630Z,12.7
2016-05-06T00:11:27.632Z,12.7
2016-05-06T00:11:37.616Z,12.7
2016-05-06T00:11:47.616Z,12.7
2016-05-06T00:11:57.616Z,12.7
2016-05-06T00:12:07.601Z,12.7
2016-05-06T00:12:17.632Z,12.7
2016-05-06T00:12:27.589Z,12.7
2016-05-06T00:12:37.589Z,12.7
2016-05-06T00:12:47.589Z,12.7
2016-05-06T00:12:57.589Z,12.7
2016-05-06T00:13:07.574Z,12.7
2016-05-06T00:13:17.574Z,12.7
2016-05-06T00:13:27.576Z,12.7
2016-05-06T00:13:37.560Z,12.7
2016-05-06T00:13:47.560Z,12.6
2016-05-06T00:13:57.544Z,12.7
2016-05-06T00:14:07.544Z,12.7
2016-05-06T00:14:17.544Z,12.7
2016-05-06T00:14:27.547Z,12.7
2016-05-06T00:14:37.547Z,12.7
2016-05-06T00:14:47.532Z,12.7
2016-05-06T00:14:57.532Z,12.7
2016-05-06T00:15:07.516Z,12.7
2016-05-06T00:15:17.516Z,12.7
2016-05-06T00:15:27.518Z,12.7
2016-05-06T00:15:37.502Z,12.7
2016-05-06T00:15:47.502Z,12.6
2016-05-06T00:15:57.502Z,12.6
2016-05-06T00:16:07.487Z,12.6
2016-05-06T00:16:17.487Z,12.6
2016-05-06T00:16:27.490Z,12.7
2016-05-06T00:16:37.490Z,12.7
2016-05-06T00:16:47.474Z,12.7
2016-05-06T00:16:57.474Z,12.6
2016-05-06T00:17:07.459Z,12.6
2016-05-06T00:17:17.459Z,12.7
2016-05-06T00:17:27.461Z,12.6
2016-05-06T00:17:37.461Z,12.5
2016-05-06T00:17:47.445Z,12.6
2016-05-06T00:17:57.445Z,12.5
2016-05-06T00:18:07.445Z,12.6
2016-05-06T00:18:17.429Z,12.6
2016-05-06T00:18:27.433Z,12.6
2016-05-06T00:18:37.433Z,12.5
2016-05-06T00:18:47.418Z,12.5
2016-05-06T00:18:57.418Z,12.5
2016-05-06T00:19:07.418Z,12.6
2016-05-06T00:19:17.402Z,12.6
2016-05-06T00:19:27.404Z,12.5
2016-05-06T00:19:37.404Z,12.6
2016-05-06T00:19:47.388Z,12.6
2016-05-06T00:19:57.388Z,12.6
2016-05-06T00:20:07.388Z,12.5
2016-05-06T00:20:17.373Z,12.6
2016-05-06T00:20:27.375Z,12.6
2016-05-06T00:20:37.368Z,12.6
2016-05-06T00:20:47.368Z,12.6
2016-05-06T00:20:57.352Z,12.6
2016-05-06T00:21:07.352Z,12.6
2016-05-06T00:21:17.352Z,12.5
2016-05-06T00:21:27.356Z,12.6
2016-05-06T00:21:37.341Z,12.6
2016-05-06T00:21:47.341Z,12.6
2016-05-06T00:21:57.325Z,12.6
2016-05-06T00:22:07.325Z,12.5
2016-05-06T00:22:17.325Z,12.5
2016-05-06T00:22:27.327Z,12.6
2016-05-06T00:22:37.327Z,12.5
2016-05-06T00:22:47.312Z,12.6
2016-05-06T00:22:57.312Z,12.5
2016-05-06T00:23:07.296Z,12.5
2016-05-06T00:23:17.296Z,12.5
2016-05-06T00:23:27.299Z,12.5
2016-05-06T00:23:37.283Z,12.5
2016-05-06T00:23:47.283Z,12.5
2016-05-06T00:23:57.283Z,12.6
2016-05-06T00:24:07.268Z,12.6
2016-05-06T00:24:17.268Z,12.6
2016-05-06T00:24:27.270Z,12.6
2016-05-06T00:24:37.270Z,12.5
2016-05-06T00:24:47.254Z,12.6
2016-05-06T00:24:57.254Z,12.6
2016-05-06T00:25:07.238Z,12.6
2016-05-06T00:25:17.238Z,12.6
2016-05-06T00:25:27.241Z,12.5
2016-05-06T00:25:38.991Z,12.6
2016-05-06T00:25:47.226Z,12.6
2016-05-06T00:25:57.226Z,12.6
2016-05-06T00:26:07.210Z,12.6
2016-05-06T00:26:17.210Z,12.5
2016-05-06T00:26:27.229Z,12.6
2016-05-06T00:26:37.213Z,12.6
2016-05-06T00:26:47.198Z,12.5
2016-05-06T00:26:57.198Z,12.6
2016-05-06T00:27:07.198Z,12.6
2016-05-06T00:27:17.182Z,12.6
2016-05-06T00:27:27.185Z,12.6
2016-05-06T00:27:37.185Z,12.5
2016-05-06T00:27:47.169Z,12.5
2016-05-06T00:27:57.169Z,12.5
2016-05-06T00:28:07.169Z,12.5
2016-05-06T00:28:17.169Z,12.5
2016-05-06T00:28:27.156Z,12.5
2016-05-06T00:28:37.156Z,12.5
2016-05-06T00:28:47.140Z,12.5
2016-05-06T00:28:57.140Z,12.5
2016-05-06T00:29:07.140Z,12.5
2016-05-06T00:29:17.140Z,12.5
2016-05-06T00:29:27.127Z,12.5
2016-05-06T00:29:37.127Z,12.5
2016-05-06T00:29:47.112Z,12.6
2016-05-06T00:29:57.112Z,12.5
2016-05-06T00:30:07.112Z,12.6
2016-05-06T00:30:17.096Z,12.6
2016-05-06T00:30:27.099Z,12.6
2016-05-06T00:30:37.099Z,12.5
2016-05-06T00:30:47.084Z,12.5
2016-05-06T00:30:57.084Z,12.5
2016-05-06T00:31:07.084Z,12.5
2016-05-06T00:31:17.084Z,12.6
2016-05-06T00:31:27.070Z,12.5
2016-05-06T00:31:37.070Z,12.5
2016-05-06T00:31:47.070Z,12.6
2016-05-06T00:31:57.054Z,12.6
2016-05-06T00:32:07.054Z,12.5
2016-05-06T00:32:17.054Z,12.5
2016-05-06T00:32:27.057Z,12.5
2016-05-06T00:32:37.042Z,12.5
2016-05-06T00:32:47.042Z,12.5
2016-05-06T00:32:57.042Z,12.5
2016-05-06T00:33:07.026Z,12.6
2016-05-06T00:33:17.026Z,12.6
2016-05-06T00:33:27.123Z,12.5
2016-05-06T00:33:37.029Z,12.5
2016-05-06T00:33:47.013Z,12.5
2016-05-06T00:33:56.998Z,12.5
2016-05-06T00:34:06.998Z,12.5
2016-05-06T00:34:16.998Z,12.5
2016-05-06T00:34:27.000Z,12.5
2016-05-06T00:34:36.984Z,12.5
2016-05-06T00:34:46.984Z,12.5
2016-05-06T00:34:56.984Z,12.6
2016-05-06T00:35:06.969Z,12.5
2016-05-06T00:35:16.969Z,12.6
2016-05-06T00:35:26.973Z,12.5
2016-05-06T00:35:36.957Z,12.5
2016-05-06T00:35:46.957Z,12.5
2016-05-06T00:35:56.957Z,12.4
2016-05-06T00:36:06.941Z,12.5
2016-05-06T00:36:16.941Z,12.5
2016-05-06T00:36:26.943Z,12.5
2016-05-06T00:36:36.928Z,12.6
2016-05-06T00:36:46.928Z,12.5
2016-05-06T00:36:56.928Z,12.6
2016-05-06T00:37:06.912Z,12.5
2016-05-06T00:37:16.928Z,12.5
2016-05-06T00:37:26.914Z,12.5
2016-05-06T00:37:36.898Z,12.5
2016-05-06T00:37:46.898Z,12.5
2016-05-06T00:37:56.898Z,12.5
2016-05-06T00:38:06.898Z,12.5
2016-05-06T00:38:16.883Z,12.5
2016-05-06T00:38:26.886Z,12.5
2016-05-06T00:38:36.886Z,12.5
2016-05-06T00:38:46.870Z,12.5
2016-05-06T00:38:56.870Z,12.5
2016-05-06T00:39:06.870Z,12.6
2016-05-06T00:39:16.855Z,12.5
2016-05-06T00:39:26.858Z,12.5
2016-05-06T00:39:36.858Z,12.5
2016-05-06T00:39:46.842Z,12.5
2016-05-06T00:39:56.842Z,12.5
2016-05-06T00:40:06.826Z,12.5
2016-05-06T00:40:16.826Z,12.5
2016-05-06T00:40:27.063Z,12.5
2016-05-06T00:40:36.828Z,12.5
2016-05-06T00:40:46.813Z,12.5
2016-05-06T00:40:57.344Z,12.5
2016-05-06T00:41:06.813Z,12.5
2016-05-06T00:41:16.797Z,12.6
2016-05-06T00:41:26.800Z,12.5
2016-05-06T00:41:36.800Z,12.5
2016-05-06T00:41:46.800Z,12.5
2016-05-06T00:41:56.784Z,12.5
2016-05-06T00:42:06.784Z,12.5
2016-05-06T00:42:16.769Z,12.5
2016-05-06T00:42:26.787Z,12.5
2016-05-06T00:42:36.772Z,12.5
2016-05-06T00:42:46.756Z,12.6
2016-05-06T00:42:56.756Z,12.6
2016-05-06T00:43:06.756Z,12.5
2016-05-06T00:43:16.756Z,12.5
2016-05-06T00:43:26.744Z,12.5
2016-05-06T00:43:36.744Z,12.4
2016-05-06T00:43:46.728Z,12.5
2016-05-06T00:43:56.728Z,12.4
2016-05-06T00:44:06.728Z,12.5
2016-05-06T00:44:16.712Z,12.5
2016-05-06T00:44:26.714Z,12.4
2016-05-06T00:44:36.714Z,12.4
2016-05-06T00:44:46.714Z,12.5
2016-05-06T00:44:56.699Z,12.5
2016-05-06T00:45:06.699Z,12.4
2016-05-06T00:45:16.714Z,12.5
2016-05-06T00:45:26.686Z,12.5
2016-05-06T00:45:36.686Z,12.4
2016-05-06T00:45:46.686Z,12.4
2016-05-06T00:45:56.670Z,12.5
2016-05-06T00:46:06.670Z,12.5
2016-05-06T00:46:16.670Z,12.4
2016-05-06T00:46:26.657Z,12.4
2016-05-06T00:46:36.657Z,12.6
2016-05-06T00:46:46.657Z,12.5
2016-05-06T00:46:56.657Z,12.4
2016-05-06T00:47:06.641Z,12.5
2016-05-06T00:47:16.641Z,12.4
2016-05-06T00:47:26.629Z,12.4
2016-05-06T00:47:36.629Z,12.5
2016-05-06T00:47:46.629Z,12.4
2016-05-06T00:47:56.629Z,12.4
2016-05-06T00:48:06.613Z,12.4
2016-05-06T00:48:16.613Z,12.4
2016-05-06T00:48:26.616Z,12.5
2016-05-06T00:48:36.600Z,12.4
2016-05-06T00:48:46.600Z,12.5
2016-05-06T00:48:56.585Z,12.4
2016-05-06T00:49:06.585Z,12.4
2016-05-06T00:49:16.585Z,12.5
2016-05-06T00:49:26.588Z,12.4
2016-05-06T00:49:36.572Z,12.4
2016-05-06T00:49:46.572Z,12.5
2016-05-06T00:49:56.572Z,12.4
2016-05-06T00:50:06.556Z,12.4
2016-05-06T00:50:16.556Z,12.5
2016-05-06T00:50:26.558Z,12.4
2016-05-06T00:50:36.543Z,12.4
2016-05-06T00:50:46.543Z,12.4
2016-05-06T00:50:56.527Z,12.4
2016-05-06T00:51:06.543Z,12.4
2016-05-06T00:51:16.527Z,12.4
2016-05-06T00:51:26.530Z,12.4
2016-05-06T00:51:36.515Z,12.4
2016-05-06T00:51:46.515Z,12.4
2016-05-06T00:51:56.515Z,12.4
2016-05-06T00:52:06.515Z,12.4
2016-05-06T00:52:16.499Z,12.4
2016-05-06T00:52:26.502Z,12.3
2016-05-06T00:52:36.486Z,12.4
2016-05-06T00:52:46.486Z,12.4
2016-05-06T00:52:56.486Z,12.5
2016-05-06T00:53:06.518Z,12.4
2016-05-06T00:53:16.471Z,12.4
2016-05-06T00:53:26.474Z,12.4
2016-05-06T00:53:36.474Z,12.4
2016-05-06T00:53:46.458Z,12.4
2016-05-06T00:53:56.458Z,12.3
2016-05-06T00:54:06.442Z,12.4
2016-05-06T00:54:16.442Z,12.4
2016-05-06T00:54:26.444Z,12.4
2016-05-06T00:54:36.444Z,12.4
2016-05-06T00:54:46.429Z,12.4
2016-05-06T00:54:56.429Z,12.4
2016-05-06T00:55:06.429Z,12.4
2016-05-06T00:55:17.882Z,12.4
2016-05-06T00:55:26.416Z,12.4
2016-05-06T00:55:36.416Z,12.4
2016-05-06T00:55:46.401Z,12.4
2016-05-06T00:55:56.401Z,12.4
2016-05-06T00:56:06.651Z,12.4
2016-05-06T00:56:16.385Z,12.4
2016-05-06T00:56:26.388Z,12.4
2016-05-06T00:56:36.388Z,12.4
2016-05-06T00:56:46.372Z,12.4
2016-05-06T00:56:56.372Z,12.4
2016-05-06T00:57:06.372Z,12.4
2016-05-06T00:57:16.357Z,12.4
2016-05-06T00:57:26.359Z,12.4
2016-05-06T00:57:36.359Z,12.4
2016-05-06T00:57:46.359Z,12.4
2016-05-06T00:57:56.343Z,12.4
2016-05-06T00:58:06.343Z,12.4
2016-05-06T00:58:16.343Z,12.3
2016-05-06T00:58:26.330Z,12.3
2016-05-06T00:58:36.330Z,12.4
2016-05-06T00:58:46.315Z,12.4
2016-05-06T00:58:56.315Z,12.4
2016-05-06T00:59:06.315Z,12.4
2016-05-06T00:59:16.315Z,12.4
2016-05-06T00:59:26.301Z,12.4
2016-05-06T00:59:36.301Z,12.4
2016-05-06T00:59:46.301Z,12.3
2016-05-06T00:59:56.301Z,12.4
2016-05-06T01:00:06.286Z,12.4
2016-05-06T01:00:16.286Z,12.4
2016-05-06T01:00:26.290Z,12.4
2016-05-06T01:00:36.290Z,12.4
2016-05-06T01:00:46.290Z,12.3
2016-05-06T01:00:56.258Z,12.4
2016-05-06T01:01:06.258Z,12.4
2016-05-06T01:01:16.258Z,12.3
2016-05-06T01:01:26.245Z,12.3
2016-05-06T01:01:36.245Z,12.2
2016-05-06T01:01:46.245Z,12.3
2016-05-06T01:01:56.229Z,12.3
2016-05-06T01:02:06.229Z,12.3
2016-05-06T01:02:16.213Z,12.3
2016-05-06T01:02:26.216Z,12.2
2016-05-06T01:02:36.216Z,12.3
2016-05-06T01:02:46.216Z,12.3
2016-05-06T01:02:56.201Z,12.2
2016-05-06T01:03:06.201Z,12.3
2016-05-06T01:03:16.201Z,12.4
2016-05-06T01:03:26.203Z,12.3
2016-05-06T01:03:36.187Z,12.3
2016-05-06T01:03:46.187Z,12.4
2016-05-06T01:03:56.172Z,12.3
2016-05-06T01:04:06.172Z,12.4
2016-05-06T01:04:16.172Z,12.3
2016-05-06T01:04:26.175Z,12.3
2016-05-06T01:04:36.159Z,12.3
2016-05-06T01:04:46.159Z,12.3
2016-05-06T01:04:56.159Z,12.3
2016-05-06T01:05:06.143Z,12.3
2016-05-06T01:05:16.143Z,12.4
2016-05-06T01:05:26.131Z,12.3
2016-05-06T01:05:36.131Z,12.4
2016-05-06T01:05:46.131Z,12.3
2016-05-06T01:05:56.115Z,12.3
2016-05-06T01:06:06.115Z,12.3
2016-05-06T01:06:16.115Z,12.3
2016-05-06T01:06:26.118Z,12.2
2016-05-06T01:06:36.118Z,12.4
2016-05-06T01:06:46.102Z,12.3
2016-05-06T01:06:56.102Z,12.3
2016-05-06T01:07:06.087Z,12.3
2016-05-06T01:07:16.087Z,12.3
2016-05-06T01:07:26.089Z,12.3
2016-05-06T01:07:36.073Z,12.3
2016-05-06T01:07:46.073Z,12.3
2016-05-06T01:07:56.073Z,12.2
2016-05-06T01:08:06.058Z,12.3
2016-05-06T01:08:16.058Z,12.3
2016-05-06T01:08:26.061Z,12.3
2016-05-06T01:08:36.045Z,12.2
2016-05-06T01:08:46.061Z,12.2
2016-05-06T01:08:56.029Z,12.3
2016-05-06T01:09:06.045Z,12.3
2016-05-06T01:09:16.029Z,12.2
2016-05-06T01:09:26.032Z,12.2
2016-05-06T01:09:36.032Z,12.3
2016-05-06T01:09:46.017Z,12.2
2016-05-06T01:09:56.017Z,12.2
2016-05-06T01:10:06.001Z,12.3
2016-05-06T01:10:16.001Z,12.2
2016-05-06T01:10:26.019Z,12.3
2016-05-06T01:10:36.003Z,12.2
2016-05-06T01:10:45.987Z,12.3
2016-05-06T01:10:55.987Z,12.3
2016-05-06T01:11:06.003Z,12.3
2016-05-06T01:11:15.972Z,12.3
2016-05-06T01:11:25.975Z,12.3
2016-05-06T01:11:35.975Z,12.3
2016-05-06T01:11:45.959Z,12.3
2016-05-06T01:11:55.959Z,12.3
2016-05-06T01:12:05.959Z,12.3
2016-05-06T01:12:15.944Z,12.3
2016-05-06T01:12:25.946Z,12.3
2016-05-06T01:12:35.946Z,12.3
2016-05-06T01:12:45.930Z,12.3
2016-05-06T01:12:55.930Z,12.3
2016-05-06T01:13:05.930Z,12.3
2016-05-06T01:13:15.914Z,12.3
2016-05-06T01:13:25.918Z,12.3
2016-05-06T01:13:35.918Z,12.3
2016-05-06T01:13:45.903Z,12.3
2016-05-06T01:13:55.903Z,12.3
2016-05-06T01:14:05.903Z,12.3
2016-05-06T01:14:15.903Z,12.3
2016-05-06T01:14:25.889Z,12.3
2016-05-06T01:14:35.889Z,12.3
2016-05-06T01:14:45.873Z,12.3
2016-05-06T01:14:55.873Z,12.3
2016-05-06T01:15:05.873Z,12.3
2016-05-06T01:15:15.873Z,12.3
2016-05-06T01:15:25.861Z,12.3
2016-05-06T01:15:35.861Z,12.3
2016-05-06T01:15:45.861Z,12.3
2016-05-06T01:15:55.845Z,12.3
2016-05-06T01:16:05.845Z,12.3
2016-05-06T01:16:15.830Z,12.3
2016-05-06T01:16:25.832Z,12.3
2016-05-06T01:16:35.832Z,12.3
2016-05-06T01:16:45.816Z,12.3
2016-05-06T01:16:55.816Z,12.3
2016-05-06T01:17:05.816Z,12.3
2016-05-06T01:17:15.816Z,12.2
2016-05-06T01:17:25.803Z,12.2
2016-05-06T01:17:35.803Z,12.3
2016-05-06T01:17:45.803Z,12.2
2016-05-06T01:17:55.788Z,12.2
2016-05-06T01:18:05.788Z,12.3
2016-05-06T01:18:15.772Z,12.1
2016-05-06T01:18:25.775Z,12.2
2016-05-06T01:18:35.775Z,12.2
2016-05-06T01:18:45.775Z,12.3
2016-05-06T01:18:55.759Z,12.2
2016-05-06T01:19:05.759Z,12.2
2016-05-06T01:19:15.759Z,12.2
2016-05-06T01:19:25.747Z,12.2
2016-05-06T01:19:35.747Z,12.2
2016-05-06T01:19:45.747Z,12.2
2016-05-06T01:19:55.747Z,12.2
2016-05-06T01:20:05.731Z,12.2
2016-05-06T01:20:15.731Z,12.2
2016-05-06T01:20:25.733Z,12.1
2016-05-06T01:20:35.718Z,12.3
2016-05-06T01:20:45.718Z,12.3
2016-05-06T01:20:55.702Z,12.1
2016-05-06T01:21:05.702Z,12.2
2016-05-06T01:21:15.686Z,12.2
2016-05-06T01:21:25.704Z,12.2
2016-05-06T01:21:35.688Z,12.1
2016-05-06T01:21:45.688Z,12.1
2016-05-06T01:21:55.688Z,12.1
2016-05-06T01:22:05.673Z,12.2
2016-05-06T01:22:15.673Z,12.1
2016-05-06T01:22:25.661Z,12.2
2016-05-06T01:22:35.661Z,12.1
2016-05-06T01:22:45.661Z,12.1
2016-05-06T01:22:55.645Z,12.1
2016-05-06T01:23:05.645Z,12.2
2016-05-06T01:23:15.645Z,12.2
2016-05-06T01:23:25.647Z,12.1
2016-05-06T01:23:35.647Z,12.1
2016-05-06T01:23:45.632Z,12.1
2016-05-06T01:23:55.632Z,12.1
2016-05-06T01:24:05.616Z,12.2
2016-05-06T01:24:15.616Z,12.2
2016-05-06T01:24:25.619Z,12.1
2016-05-06T01:24:35.604Z,12.1
2016-05-06T01:24:45.604Z,12.2
2016-05-06T01:24:55.604Z,12.1
2016-05-06T01:25:05.588Z,12.1
2016-05-06T01:25:15.588Z,12.2
2016-05-06T01:25:25.684Z,12.1
2016-05-06T01:25:35.590Z,12.1
2016-05-06T01:25:45.574Z,12.1
2016-05-06T01:25:55.559Z,12.2
2016-05-06T01:26:05.559Z,12.2
2016-05-06T01:26:15.559Z,12.1
2016-05-06T01:26:25.563Z,12.1
2016-05-06T01:26:35.547Z,12.2
2016-05-06T01:26:45.547Z,12.1
2016-05-06T01:26:55.547Z,12.2
2016-05-06T01:27:05.531Z,12.1
2016-05-06T01:27:15.531Z,12.1
2016-05-06T01:27:25.533Z,12.1
2016-05-06T01:27:35.518Z,12.2
2016-05-06T01:27:45.518Z,12.1
2016-05-06T01:27:55.518Z,12.1
2016-05-06T01:28:05.502Z,12.1
2016-05-06T01:28:15.502Z,12.1
2016-05-06T01:28:25.505Z,12.1
2016-05-06T01:28:35.505Z,12.1
2016-05-06T01:28:45.490Z,12.1
2016-05-06T01:28:55.490Z,12.1
2016-05-06T01:29:05.490Z,12.1
2016-05-06T01:29:15.474Z,12.1
2016-05-06T01:29:25.476Z,12.1
2016-05-06T01:29:35.460Z,12.1
2016-05-06T01:29:45.460Z,12.1
2016-05-06T01:29:55.460Z,12.1
2016-05-06T01:30:05.460Z,12.1
2016-05-06T01:30:15.445Z,12.1
2016-05-06T01:30:25.448Z,12.1
2016-05-06T01:30:35.448Z,12.1
2016-05-06T01:30:45.432Z,12.1
2016-05-06T01:30:55.432Z,12.1
2016-05-06T01:31:05.416Z,12.1
2016-05-06T01:31:15.416Z,12.1
2016-05-06T01:31:25.419Z,12.1
2016-05-06T01:31:35.404Z,12.1
2016-05-06T01:31:45.419Z,12.1
2016-05-06T01:31:55.404Z,12.1
2016-05-06T01:32:05.404Z,12.1
2016-05-06T01:32:15.404Z,12
2016-05-06T01:32:25.390Z,12
2016-05-06T01:32:35.390Z,12
2016-05-06T01:32:45.390Z,12
2016-05-06T01:32:55.453Z,12
2016-05-06T01:33:05.375Z,12
2016-05-06T01:33:15.375Z,12
2016-05-06T01:33:25.362Z,12
2016-05-06T01:33:35.362Z,12
2016-05-06T01:33:45.346Z,12
2016-05-06T01:33:55.346Z,12
2016-05-06T01:34:05.346Z,12
2016-05-06T01:34:15.331Z,12
2016-05-06T01:34:25.333Z,12
2016-05-06T01:34:35.333Z,12
2016-05-06T01:34:45.317Z,12
2016-05-06T01:34:55.317Z,12
2016-05-06T01:35:05.317Z,12
2016-05-06T01:35:15.317Z,12
2016-05-06T01:35:25.305Z,12
2016-05-06T01:35:35.305Z,12
2016-05-06T01:35:45.290Z,12
2016-05-06T01:35:55.290Z,12
2016-05-06T01:36:05.290Z,12
2016-05-06T01:36:15.274Z,12
2016-05-06T01:36:25.276Z,12
2016-05-06T01:36:35.276Z,12
2016-05-06T01:36:45.276Z,12
2016-05-06T01:36:55.261Z,12
2016-05-06T01:37:05.261Z,12
2016-05-06T01:37:15.261Z,12
2016-05-06T01:37:25.247Z,12
2016-05-06T01:37:35.247Z,11.9
2016-05-06T01:37:45.247Z,12
2016-05-06T01:37:55.231Z,12
2016-05-06T01:38:05.231Z,12.1
2016-05-06T01:38:15.231Z,12
2016-05-06T01:38:25.219Z,12
2016-05-06T01:38:35.219Z,12
2016-05-06T01:38:45.219Z,12
2016-05-06T01:38:55.203Z,12
2016-05-06T01:39:05.203Z,12
2016-05-06T01:39:15.203Z,12
2016-05-06T01:39:25.207Z,12
2016-05-06T01:39:35.207Z,12
2016-05-06T01:39:45.191Z,11.9
2016-05-06T01:39:55.176Z,12
2016-05-06T01:40:05.176Z,12
2016-05-06T01:40:15.176Z,12
2016-05-06T01:40:25.178Z,11.9
2016-05-06T01:40:35.162Z,11.9
2016-05-06T01:40:45.162Z,11.9
2016-05-06T01:40:55.162Z,11.9
2016-05-06T01:41:06.131Z,12
2016-05-06T01:41:15.147Z,11.9
2016-05-06T01:41:25.133Z,11.9
2016-05-06T01:41:35.133Z,12
2016-05-06T01:41:45.133Z,12
2016-05-06T01:41:55.117Z,11.9
2016-05-06T01:42:05.117Z,12.1
2016-05-06T01:42:15.117Z,12
2016-05-06T01:42:25.121Z,12
2016-05-06T01:42:35.106Z,12
2016-05-06T01:42:45.106Z,12
2016-05-06T01:42:55.106Z,11.9
2016-05-06T01:43:05.090Z,11.9
2016-05-06T01:43:15.090Z,11.9
2016-05-06T01:43:25.108Z,11.9
2016-05-06T01:43:35.076Z,11.9
2016-05-06T01:43:45.076Z,11.9
2016-05-06T01:43:55.076Z,12
2016-05-06T01:44:05.061Z,12
2016-05-06T01:44:15.061Z,11.9
2016-05-06T01:44:25.064Z,11.9
2016-05-06T01:44:35.048Z,11.9
2016-05-06T01:44:45.048Z,11.9
2016-05-06T01:44:55.033Z,12
2016-05-06T01:45:05.033Z,12
2016-05-06T01:45:15.033Z,11.9
2016-05-06T01:45:25.035Z,12
2016-05-06T01:45:35.019Z,11.9
2016-05-06T01:45:45.019Z,12
2016-05-06T01:45:55.019Z,11.9
2016-05-06T01:46:05.019Z,12
2016-05-06T01:46:15.003Z,12
2016-05-06T01:46:25.006Z,11.9
2016-05-06T01:46:34.991Z,11.9
2016-05-06T01:46:44.991Z,11.9
2016-05-06T01:46:54.991Z,11.9
2016-05-06T01:47:04.991Z,11.9
2016-05-06T01:47:14.975Z,12
2016-05-06T01:47:24.978Z,11.9
2016-05-06T01:47:34.978Z,11.9
2016-05-06T01:47:44.962Z,11.9
2016-05-06T01:47:54.962Z,11.9
2016-05-06T01:48:04.947Z,11.9
2016-05-06T01:48:14.947Z,11.9
2016-05-06T01:48:24.950Z,11.9
2016-05-06T01:48:34.934Z,11.9
2016-05-06T01:48:44.934Z,12
2016-05-06T01:48:54.934Z,11.9
2016-05-06T01:49:04.934Z,11.9
2016-05-06T01:49:14.919Z,11.9
2016-05-06T01:49:24.921Z,11.9
2016-05-06T01:49:34.921Z,11.9
2016-05-06T01:49:44.905Z,12
2016-05-06T01:49:54.905Z,12
2016-05-06T01:50:04.889Z,11.8
2016-05-06T01:50:14.889Z,11.9
2016-05-06T01:50:24.891Z,11.9
2016-05-06T01:50:34.891Z,11.9
2016-05-06T01:50:44.876Z,11.9
2016-05-06T01:50:54.876Z,11.9
2016-05-06T01:51:04.876Z,11.9
2016-05-06T01:51:14.860Z,11.9
2016-05-06T01:51:24.864Z,11.9
2016-05-06T01:51:34.848Z,11.9
2016-05-06T01:51:44.864Z,11.9
2016-05-06T01:51:54.848Z,12
2016-05-06T01:52:04.848Z,11.9
2016-05-06T01:52:14.833Z,11.9
2016-05-06T01:52:24.836Z,11.9
2016-05-06T01:52:34.836Z,11.9
2016-05-06T01:52:44.836Z,11.9
2016-05-06T01:52:54.820Z,11.9
2016-05-06T01:53:04.805Z,11.9
2016-05-06T01:53:14.805Z,11.9
2016-05-06T01:53:24.807Z,11.9
2016-05-06T01:53:34.807Z,11.9
2016-05-06T01:53:44.807Z,11.9
2016-05-06T01:53:54.791Z,12
2016-05-06T01:54:04.791Z,12
2016-05-06T01:54:14.775Z,11.9
2016-05-06T01:54:24.777Z,11.9
2016-05-06T01:54:34.777Z,11.9
2016-05-06T01:54:44.762Z,11.9
2016-05-06T01:54:54.762Z,11.9
2016-05-06T01:55:04.762Z,11.9
2016-05-06T01:55:14.746Z,11.9
2016-05-06T01:55:24.750Z,12
2016-05-06T01:55:34.750Z,11.9
2016-05-06T01:55:44.750Z,11.9
2016-05-06T01:55:55.250Z,11.9
2016-05-06T01:56:04.734Z,11.9
2016-05-06T01:56:14.734Z,11.9
2016-05-06T01:56:24.721Z,11.9
2016-05-06T01:56:34.721Z,11.9
2016-05-06T01:56:44.705Z,11.9
2016-05-06T01:56:54.705Z,11.9
2016-05-06T01:57:04.705Z,11.8
2016-05-06T01:57:14.705Z,11.8
2016-05-06T01:57:24.693Z,11.8
2016-05-06T01:57:34.693Z,12
2016-05-06T01:57:44.677Z,12
2016-05-06T01:57:54.677Z,12
2016-05-06T01:58:04.677Z,11.9
2016-05-06T01:58:14.661Z,11.9
2016-05-06T01:58:24.663Z,12
2016-05-06T01:58:34.663Z,12
2016-05-06T01:58:44.663Z,11.9
2016-05-06T01:58:54.663Z,11.9
2016-05-06T01:59:04.648Z,11.9
2016-05-06T01:59:14.648Z,11.9
2016-05-06T01:59:24.635Z,11.9
2016-05-06T01:59:34.635Z,11.9
2016-05-06T01:59:44.635Z,11.9
2016-05-06T01:59:54.619Z,11.9
2016-05-06T02:00:04.619Z,11.8
2016-05-06T02:00:14.619Z,11.9
2016-05-06T02:00:24.607Z,12
2016-05-06T02:00:34.607Z,11.9
2016-05-06T02:00:44.607Z,11.9
2016-05-06T02:00:54.607Z,11.9
2016-05-06T02:01:04.591Z,11.9
2016-05-06T02:01:14.591Z,11.9
2016-05-06T02:01:24.578Z,11.8
2016-05-06T02:01:34.578Z,11.9
2016-05-06T02:01:44.578Z,12
2016-05-06T02:01:54.562Z,11.9
2016-05-06T02:02:04.562Z,12
2016-05-06T02:02:14.562Z,11.9
2016-05-06T02:02:24.549Z,11.9
2016-05-06T02:02:34.549Z,11.8
2016-05-06T02:02:44.549Z,11.9
2016-05-06T02:02:54.549Z,11.9
2016-05-06T02:03:04.534Z,11.9
2016-05-06T02:03:14.534Z,12
2016-05-06T02:03:24.520Z,11.9
2016-05-06T02:03:34.520Z,12
2016-05-06T02:03:44.520Z,12
2016-05-06T02:03:54.520Z,11.9
2016-05-06T02:04:04.504Z,11.8
2016-05-06T02:04:14.504Z,11.9
2016-05-06T02:04:24.493Z,11.9
2016-05-06T02:04:34.493Z,11.8
2016-05-06T02:04:44.493Z,12
2016-05-06T02:04:54.477Z,12
2016-05-06T02:05:04.477Z,11.9
2016-05-06T02:05:14.477Z,11.9
2016-05-06T02:05:24.479Z,11.8
2016-05-06T02:05:34.464Z,11.8
2016-05-06T02:05:44.464Z,11.9
2016-05-06T02:05:54.448Z,11.9
2016-05-06T02:06:04.448Z,11.9
2016-05-06T02:06:14.448Z,11.9
2016-05-06T02:06:24.451Z,11.9
2016-05-06T02:06:34.435Z,11.9
2016-05-06T02:06:44.435Z,11.7
2016-05-06T02:06:54.435Z,11.9
2016-05-06T02:07:04.420Z,11.9
2016-05-06T02:07:14.420Z,11.9
2016-05-06T02:07:24.422Z,11.9
2016-05-06T02:07:34.406Z,11.8
2016-05-06T02:07:44.406Z,11.9
2016-05-06T02:07:54.406Z,11.7
2016-05-06T02:08:04.390Z,11.9
2016-05-06T02:08:14.390Z,11.8
2016-05-06T02:08:24.393Z,11.9
2016-05-06T02:08:34.378Z,11.9
2016-05-06T02:08:44.378Z,11.8
2016-05-06T02:08:54.378Z,11.8
2016-05-06T02:09:04.362Z,11.8
2016-05-06T02:09:14.362Z,11.8
2016-05-06T02:09:24.365Z,11.8
2016-05-06T02:09:34.365Z,11.9
2016-05-06T02:09:44.350Z,11.8
2016-05-06T02:09:54.350Z,11.9
2016-05-06T02:10:04.334Z,11.8
2016-05-06T02:10:14.350Z,11.8
2016-05-06T02:10:24.336Z,11.8
2016-05-06T02:10:34.320Z,11.7
2016-05-06T02:10:44.320Z,11.7
2016-05-06T02:10:55.195Z,11.7
2016-05-06T02:11:04.320Z,11.8
2016-05-06T02:11:14.305Z,11.7
2016-05-06T02:11:24.308Z,11.7
2016-05-06T02:11:34.308Z,11.8
2016-05-06T02:11:44.292Z,11.7
2016-05-06T02:11:54.292Z,11.8
2016-05-06T02:12:04.276Z,11.8
2016-05-06T02:12:14.276Z,11.8
2016-05-06T02:12:24.279Z,11.8
2016-05-06T02:12:34.279Z,11.7
2016-05-06T02:12:44.264Z,11.8
2016-05-06T02:12:54.264Z,11.7
2016-05-06T02:13:04.248Z,11.8
2016-05-06T02:13:14.248Z,11.7
2016-05-06T02:13:24.251Z,11.8
2016-05-06T02:13:34.251Z,11.8
2016-05-06T02:13:44.236Z,11.8
2016-05-06T02:13:54.236Z,11.7